sensor_id;sensor_type;location;lat;lon;timestamp;P1;durP1;ratioP1;P2;durP2;ratioP2
15049;SDS011;7622;42.724;23.250;2023-11-18T00:02:14;1.27;;;0.60;;
15049;SDS011;7622;42.724;23.250;2023-11-18T00:04:41;0.60;;;0.60;;
15049;SDS011;7622;42.724;23.250;2023-11-18T00:07:07;0.50;;;0.50;;
15049;SDS011;7622;42.724;23.250;2023-11-18T00:09:34;0.60;;;0.60;;
15049;SDS011;7622;42.724;23.250;2023-11-18T00:12:02;0.80;;;0.80;;
15049;SDS011;7622;42.724;23.250;2023-11-18T00:14:30;0.73;;;0.73;;
15049;SDS011;7622;42.724;23.250;2023-11-18T00:16:57;0.60;;;0.60;;
15049;SDS011;7622;42.724;23.250;2023-11-18T00:19:25;0.60;;;0.60;;
15049;SDS011;7622;42.724;23.250;2023-11-18T00:21:52;0.83;;;0.80;;
15049;SDS011;7622;42.724;23.250;2023-11-18T00:24:19;0.80;;;0.80;;
15049;SDS011;7622;42.724;23.250;2023-11-18T00:26:46;0.70;;;0.70;;
15049;SDS011;7622;42.724;23.250;2023-11-18T00:29:13;0.63;;;0.63;;
15049;SDS011;7622;42.724;23.250;2023-11-18T00:31:40;0.70;;;0.70;;
15049;SDS011;7622;42.724;23.250;2023-11-18T00:34:07;1.00;;;0.90;;
15049;SDS011;7622;42.724;23.250;2023-11-18T00:36:35;0.77;;;0.77;;
15049;SDS011;7622;42.724;23.250;2023-11-18T00:39:02;0.97;;;0.97;;
15049;SDS011;7622;42.724;23.250;2023-11-18T00:41:29;0.83;;;0.83;;
15049;SDS011;7622;42.724;23.250;2023-11-18T00:43:56;0.90;;;0.90;;
15049;SDS011;7622;42.724;23.250;2023-11-18T00:46:23;0.60;;;0.60;;
15049;SDS011;7622;42.724;23.250;2023-11-18T00:48:50;1.03;;;1.03;;
15049;SDS011;7622;42.724;23.250;2023-11-18T00:51:17;0.87;;;0.87;;
15049;SDS011;7622;42.724;23.250;2023-11-18T00:53:49;1.13;;;0.80;;
15049;SDS011;7622;42.724;23.250;2023-11-18T00:56:20;0.73;;;0.73;;
15049;SDS011;7622;42.724;23.250;2023-11-18T00:58:49;0.90;;;0.90;;
15049;SDS011;7622;42.724;23.250;2023-11-18T01:01:18;0.80;;;0.80;;
15049;SDS011;7622;42.724;23.250;2023-11-18T01:03:45;0.80;;;0.80;;
15049;SDS011;7622;42.724;23.250;2023-11-18T01:06:12;0.70;;;0.70;;
15049;SDS011;7622;42.724;23.250;2023-11-18T01:08:40;0.80;;;0.80;;
15049;SDS011;7622;42.724;23.250;2023-11-18T01:11:12;1.63;;;0.80;;
15049;SDS011;7622;42.724;23.250;2023-11-18T01:13:43;0.90;;;0.90;;
15049;SDS011;7622;42.724;23.250;2023-11-18T01:16:10;1.23;;;1.23;;
15049;SDS011;7622;42.724;23.250;2023-11-18T01:18:38;0.90;;;0.90;;
15049;SDS011;7622;42.724;23.250;2023-11-18T01:21:05;1.20;;;1.20;;
15049;SDS011;7622;42.724;23.250;2023-11-18T01:23:34;1.20;;;1.20;;
15049;SDS011;7622;42.724;23.250;2023-11-18T01:26:00;1.30;;;1.30;;
15049;SDS011;7622;42.724;23.250;2023-11-18T01:28:31;1.37;;;1.37;;
15049;SDS011;7622;42.724;23.250;2023-11-18T01:31:02;1.43;;;1.43;;
15049;SDS011;7622;42.724;23.250;2023-11-18T01:33:33;1.73;;;1.50;;
15049;SDS011;7622;42.724;23.250;2023-11-18T01:36:02;1.57;;;1.47;;
15049;SDS011;7622;42.724;23.250;2023-11-18T01:38:30;1.60;;;1.50;;
15049;SDS011;7622;42.724;23.250;2023-11-18T01:40:56;1.60;;;1.50;;
15049;SDS011;7622;42.724;23.250;2023-11-18T01:43:25;1.30;;;1.30;;
15049;SDS011;7622;42.724;23.250;2023-11-18T01:45:53;1.40;;;1.40;;
15049;SDS011;7622;42.724;23.250;2023-11-18T01:48:21;3.07;;;1.47;;
15049;SDS011;7622;42.724;23.250;2023-11-18T01:50:52;1.10;;;1.10;;
15049;SDS011;7622;42.724;23.250;2023-11-18T01:53:19;0.93;;;0.93;;
15049;SDS011;7622;42.724;23.250;2023-11-18T01:55:45;1.33;;;1.33;;
15049;SDS011;7622;42.724;23.250;2023-11-18T01:58:14;1.27;;;1.27;;
15049;SDS011;7622;42.724;23.250;2023-11-18T02:00:45;1.10;;;1.10;;
15049;SDS011;7622;42.724;23.250;2023-11-18T02:03:18;1.20;;;1.20;;
15049;SDS011;7622;42.724;23.250;2023-11-18T02:05:45;1.30;;;1.30;;
15049;SDS011;7622;42.724;23.250;2023-11-18T02:08:12;0.80;;;0.80;;
15049;SDS011;7622;42.724;23.250;2023-11-18T02:10:43;1.40;;;1.40;;
15049;SDS011;7622;42.724;23.250;2023-11-18T02:13:18;1.37;;;1.37;;
15049;SDS011;7622;42.724;23.250;2023-11-18T02:15:52;1.70;;;1.60;;
15049;SDS011;7622;42.724;23.250;2023-11-18T02:18:21;1.70;;;1.60;;
15049;SDS011;7622;42.724;23.250;2023-11-18T02:20:51;2.33;;;1.90;;
15049;SDS011;7622;42.724;23.250;2023-11-18T02:23:23;1.67;;;1.57;;
15049;SDS011;7622;42.724;23.250;2023-11-18T02:25:55;1.70;;;1.60;;
15049;SDS011;7622;42.724;23.250;2023-11-18T02:28:21;1.50;;;1.50;;
15049;SDS011;7622;42.724;23.250;2023-11-18T02:30:49;1.70;;;1.60;;
15049;SDS011;7622;42.724;23.250;2023-11-18T02:33:19;1.90;;;1.80;;
15049;SDS011;7622;42.724;23.250;2023-11-18T02:35:55;1.67;;;1.57;;
15049;SDS011;7622;42.724;23.250;2023-11-18T02:38:30;2.03;;;1.70;;
15049;SDS011;7622;42.724;23.250;2023-11-18T02:41:04;1.80;;;1.70;;
15049;SDS011;7622;42.724;23.250;2023-11-18T02:43:35;2.20;;;2.10;;
15049;SDS011;7622;42.724;23.250;2023-11-18T02:46:05;1.93;;;1.83;;
15049;SDS011;7622;42.724;23.250;2023-11-18T02:48:34;1.90;;;1.80;;
15049;SDS011;7622;42.724;23.250;2023-11-18T02:51:01;2.47;;;2.27;;
15049;SDS011;7622;42.724;23.250;2023-11-18T02:53:28;2.23;;;2.13;;
15049;SDS011;7622;42.724;23.250;2023-11-18T02:55:55;2.47;;;2.37;;
15049;SDS011;7622;42.724;23.250;2023-11-18T02:58:28;2.60;;;2.40;;
15049;SDS011;7622;42.724;23.250;2023-11-18T03:00:55;2.30;;;2.20;;
15049;SDS011;7622;42.724;23.250;2023-11-18T03:03:22;2.80;;;2.50;;
15049;SDS011;7622;42.724;23.250;2023-11-18T03:05:49;2.27;;;2.17;;
15049;SDS011;7622;42.724;23.250;2023-11-18T03:08:15;2.03;;;1.93;;
15049;SDS011;7622;42.724;23.250;2023-11-18T03:10:43;2.60;;;2.40;;
15049;SDS011;7622;42.724;23.250;2023-11-18T03:13:10;2.57;;;2.37;;
15049;SDS011;7622;42.724;23.250;2023-11-18T03:15:38;2.67;;;2.53;;
15049;SDS011;7622;42.724;23.250;2023-11-18T03:18:05;2.27;;;2.17;;
15049;SDS011;7622;42.724;23.250;2023-11-18T03:20:33;2.37;;;2.10;;
15049;SDS011;7622;42.724;23.250;2023-11-18T03:23:00;2.37;;;2.27;;
15049;SDS011;7622;42.724;23.250;2023-11-18T03:25:27;2.27;;;2.17;;
15049;SDS011;7622;42.724;23.250;2023-11-18T03:27:53;2.20;;;2.07;;
15049;SDS011;7622;42.724;23.250;2023-11-18T03:30:20;2.77;;;2.40;;
15049;SDS011;7622;42.724;23.250;2023-11-18T03:32:48;2.97;;;2.33;;
15049;SDS011;7622;42.724;23.250;2023-11-18T03:35:15;2.17;;;2.07;;
15049;SDS011;7622;42.724;23.250;2023-11-18T03:37:42;2.40;;;2.30;;
15049;SDS011;7622;42.724;23.250;2023-11-18T03:40:09;2.30;;;2.10;;
15049;SDS011;7622;42.724;23.250;2023-11-18T03:42:37;2.10;;;2.00;;
15049;SDS011;7622;42.724;23.250;2023-11-18T03:45:04;2.10;;;2.00;;
15049;SDS011;7622;42.724;23.250;2023-11-18T03:47:32;2.27;;;2.17;;
15049;SDS011;7622;42.724;23.250;2023-11-18T03:50:00;2.33;;;2.13;;
15049;SDS011;7622;42.724;23.250;2023-11-18T03:52:27;3.00;;;2.10;;
15049;SDS011;7622;42.724;23.250;2023-11-18T03:54:54;2.43;;;2.23;;
15049;SDS011;7622;42.724;23.250;2023-11-18T03:57:21;2.50;;;2.40;;
15049;SDS011;7622;42.724;23.250;2023-11-18T03:59:48;3.00;;;2.77;;
15049;SDS011;7622;42.724;23.250;2023-11-18T04:02:15;2.80;;;2.60;;
15049;SDS011;7622;42.724;23.250;2023-11-18T04:04:42;2.67;;;2.47;;
15049;SDS011;7622;42.724;23.250;2023-11-18T04:07:10;2.30;;;2.20;;
15049;SDS011;7622;42.724;23.250;2023-11-18T04:09:37;2.27;;;2.17;;
15049;SDS011;7622;42.724;23.250;2023-11-18T04:12:06;2.30;;;2.10;;
15049;SDS011;7622;42.724;23.250;2023-11-18T04:14:33;2.53;;;2.40;;
15049;SDS011;7622;42.724;23.250;2023-11-18T04:17:00;2.30;;;2.20;;
15049;SDS011;7622;42.724;23.250;2023-11-18T04:19:27;2.40;;;2.30;;
15049;SDS011;7622;42.724;23.250;2023-11-18T04:21:53;2.40;;;2.30;;
15049;SDS011;7622;42.724;23.250;2023-11-18T04:24:22;3.33;;;2.07;;
15049;SDS011;7622;42.724;23.250;2023-11-18T04:26:48;2.50;;;2.30;;
15049;SDS011;7622;42.724;23.250;2023-11-18T04:29:15;2.30;;;2.20;;
15049;SDS011;7622;42.724;23.250;2023-11-18T04:31:43;1.97;;;1.87;;
15049;SDS011;7622;42.724;23.250;2023-11-18T04:34:09;2.10;;;2.00;;
15049;SDS011;7622;42.724;23.250;2023-11-18T04:36:36;2.17;;;2.07;;
15049;SDS011;7622;42.724;23.250;2023-11-18T04:39:03;3.27;;;2.77;;
15049;SDS011;7622;42.724;23.250;2023-11-18T04:41:31;2.77;;;2.57;;
15049;SDS011;7622;42.724;23.250;2023-11-18T04:43:58;2.47;;;2.27;;
15049;SDS011;7622;42.724;23.250;2023-11-18T04:46:24;1.77;;;1.77;;
15049;SDS011;7622;42.724;23.250;2023-11-18T04:48:51;2.17;;;2.07;;
15049;SDS011;7622;42.724;23.250;2023-11-18T04:51:19;2.57;;;2.40;;
15049;SDS011;7622;42.724;23.250;2023-11-18T04:53:47;2.33;;;2.23;;
15049;SDS011;7622;42.724;23.250;2023-11-18T04:56:14;2.30;;;2.20;;
15049;SDS011;7622;42.724;23.250;2023-11-18T04:58:45;2.00;;;1.90;;
15049;SDS011;7622;42.724;23.250;2023-11-18T05:01:13;2.30;;;2.20;;
15049;SDS011;7622;42.724;23.250;2023-11-18T05:03:40;2.30;;;2.20;;
15049;SDS011;7622;42.724;23.250;2023-11-18T05:06:07;1.70;;;1.70;;
15049;SDS011;7622;42.724;23.250;2023-11-18T05:08:33;1.97;;;1.87;;
15049;SDS011;7622;42.724;23.250;2023-11-18T05:11:01;1.57;;;1.50;;
15049;SDS011;7622;42.724;23.250;2023-11-18T05:13:29;2.07;;;1.87;;
15049;SDS011;7622;42.724;23.250;2023-11-18T05:15:59;1.83;;;1.73;;
15049;SDS011;7622;42.724;23.250;2023-11-18T05:18:25;1.93;;;1.77;;
15049;SDS011;7622;42.724;23.250;2023-11-18T05:20:54;1.97;;;1.87;;
15049;SDS011;7622;42.724;23.250;2023-11-18T05:23:22;2.20;;;2.10;;
15049;SDS011;7622;42.724;23.250;2023-11-18T05:25:49;1.90;;;1.80;;
15049;SDS011;7622;42.724;23.250;2023-11-18T05:28:16;1.50;;;1.40;;
15049;SDS011;7622;42.724;23.250;2023-11-18T05:30:43;2.00;;;1.90;;
15049;SDS011;7622;42.724;23.250;2023-11-18T05:33:11;1.37;;;1.27;;
15049;SDS011;7622;42.724;23.250;2023-11-18T05:35:42;1.60;;;1.50;;
15049;SDS011;7622;42.724;23.250;2023-11-18T05:38:14;1.93;;;1.57;;
15049;SDS011;7622;42.724;23.250;2023-11-18T05:40:43;1.60;;;1.57;;
15049;SDS011;7622;42.724;23.250;2023-11-18T05:43:20;2.03;;;1.87;;
15049;SDS011;7622;42.724;23.250;2023-11-18T05:45:47;1.73;;;1.63;;
15049;SDS011;7622;42.724;23.250;2023-11-18T05:48:41;1.57;;;1.47;;
15049;SDS011;7622;42.724;23.250;2023-11-18T05:51:08;1.87;;;1.77;;
15049;SDS011;7622;42.724;23.250;2023-11-18T05:53:39;1.30;;;1.30;;
15049;SDS011;7622;42.724;23.250;2023-11-18T05:56:06;1.60;;;1.50;;
15049;SDS011;7622;42.724;23.250;2023-11-18T05:58:33;1.53;;;1.30;;
15049;SDS011;7622;42.724;23.250;2023-11-18T06:01:00;2.67;;;1.20;;
15049;SDS011;7622;42.724;23.250;2023-11-18T06:03:27;1.13;;;1.13;;
15049;SDS011;7622;42.724;23.250;2023-11-18T06:05:55;0.80;;;0.80;;
15049;SDS011;7622;42.724;23.250;2023-11-18T06:08:22;1.70;;;0.97;;
15049;SDS011;7622;42.724;23.250;2023-11-18T06:10:49;1.30;;;1.20;;
15049;SDS011;7622;42.724;23.250;2023-11-18T06:13:21;1.20;;;1.20;;
15049;SDS011;7622;42.724;23.250;2023-11-18T06:15:48;1.77;;;1.67;;
15049;SDS011;7622;42.724;23.250;2023-11-18T06:18:16;1.80;;;1.70;;
15049;SDS011;7622;42.724;23.250;2023-11-18T06:20:44;1.80;;;1.50;;
15049;SDS011;7622;42.724;23.250;2023-11-18T06:23:12;1.40;;;1.30;;
15049;SDS011;7622;42.724;23.250;2023-11-18T06:25:41;1.20;;;1.20;;
15049;SDS011;7622;42.724;23.250;2023-11-18T06:28:07;1.10;;;1.10;;
15049;SDS011;7622;42.724;23.250;2023-11-18T06:30:34;1.40;;;1.30;;
15049;SDS011;7622;42.724;23.250;2023-11-18T06:33:01;1.67;;;1.40;;
15049;SDS011;7622;42.724;23.250;2023-11-18T06:35:28;1.17;;;0.90;;
15049;SDS011;7622;42.724;23.250;2023-11-18T06:37:55;1.00;;;1.00;;
15049;SDS011;7622;42.724;23.250;2023-11-18T06:40:25;0.97;;;0.93;;
15049;SDS011;7622;42.724;23.250;2023-11-18T06:42:52;1.10;;;1.00;;
15049;SDS011;7622;42.724;23.250;2023-11-18T06:45:26;0.87;;;0.87;;
15049;SDS011;7622;42.724;23.250;2023-11-18T06:47:53;1.90;;;0.87;;
15049;SDS011;7622;42.724;23.250;2023-11-18T06:50:20;1.10;;;1.07;;
15049;SDS011;7622;42.724;23.250;2023-11-18T06:52:49;1.13;;;1.13;;
15049;SDS011;7622;42.724;23.250;2023-11-18T06:55:16;0.70;;;0.70;;
15049;SDS011;7622;42.724;23.250;2023-11-18T06:57:44;0.77;;;0.77;;
15049;SDS011;7622;42.724;23.250;2023-11-18T07:00:12;0.77;;;0.77;;
15049;SDS011;7622;42.724;23.250;2023-11-18T07:02:40;1.57;;;0.50;;
15049;SDS011;7622;42.724;23.250;2023-11-18T07:05:07;1.00;;;1.00;;
15049;SDS011;7622;42.724;23.250;2023-11-18T07:07:34;1.20;;;0.80;;
15049;SDS011;7622;42.724;23.250;2023-11-18T07:10:03;0.80;;;0.80;;
15049;SDS011;7622;42.724;23.250;2023-11-18T07:12:32;1.07;;;1.03;;
15049;SDS011;7622;42.724;23.250;2023-11-18T07:15:04;0.60;;;0.60;;
15049;SDS011;7622;42.724;23.250;2023-11-18T07:17:31;0.90;;;0.90;;
15049;SDS011;7622;42.724;23.250;2023-11-18T07:19:59;0.90;;;0.90;;
15049;SDS011;7622;42.724;23.250;2023-11-18T07:22:26;1.00;;;0.90;;
15049;SDS011;7622;42.724;23.250;2023-11-18T07:24:54;0.90;;;0.90;;
15049;SDS011;7622;42.724;23.250;2023-11-18T07:27:21;1.10;;;1.07;;
15049;SDS011;7622;42.724;23.250;2023-11-18T07:29:48;2.20;;;2.00;;
15049;SDS011;7622;42.724;23.250;2023-11-18T07:32:16;0.70;;;0.70;;
15049;SDS011;7622;42.724;23.250;2023-11-18T07:34:44;0.60;;;0.60;;
15049;SDS011;7622;42.724;23.250;2023-11-18T07:37:11;0.60;;;0.60;;
15049;SDS011;7622;42.724;23.250;2023-11-18T07:39:38;3.40;;;1.43;;
15049;SDS011;7622;42.724;23.250;2023-11-18T07:42:10;1.10;;;1.03;;
15049;SDS011;7622;42.724;23.250;2023-11-18T07:44:37;1.43;;;1.30;;
15049;SDS011;7622;42.724;23.250;2023-11-18T07:47:05;3.83;;;0.93;;
15049;SDS011;7622;42.724;23.250;2023-11-18T07:49:35;1.20;;;1.10;;
15049;SDS011;7622;42.724;23.250;2023-11-18T07:52:02;0.50;;;0.50;;
15049;SDS011;7622;42.724;23.250;2023-11-18T07:54:29;1.13;;;0.77;;
15049;SDS011;7622;42.724;23.250;2023-11-18T07:56:55;0.90;;;0.90;;
15049;SDS011;7622;42.724;23.250;2023-11-18T07:59:22;1.37;;;0.67;;
15049;SDS011;7622;42.724;23.250;2023-11-18T08:01:49;2.13;;;0.90;;
15049;SDS011;7622;42.724;23.250;2023-11-18T08:04:15;1.00;;;1.00;;
15049;SDS011;7622;42.724;23.250;2023-11-18T08:06:47;1.03;;;0.80;;
15049;SDS011;7622;42.724;23.250;2023-11-18T08:09:14;1.83;;;1.07;;
15049;SDS011;7622;42.724;23.250;2023-11-18T08:11:47;1.20;;;1.10;;
15049;SDS011;7622;42.724;23.250;2023-11-18T08:14:14;2.00;;;1.00;;
15049;SDS011;7622;42.724;23.250;2023-11-18T08:16:41;0.90;;;0.90;;
15049;SDS011;7622;42.724;23.250;2023-11-18T08:19:08;1.20;;;1.10;;
15049;SDS011;7622;42.724;23.250;2023-11-18T08:21:35;1.03;;;1.03;;
15049;SDS011;7622;42.724;23.250;2023-11-18T08:24:05;1.00;;;1.00;;
15049;SDS011;7622;42.724;23.250;2023-11-18T08:26:33;0.80;;;0.80;;
15049;SDS011;7622;42.724;23.250;2023-11-18T08:29:00;0.70;;;0.70;;
15049;SDS011;7622;42.724;23.250;2023-11-18T08:31:27;1.40;;;1.30;;
15049;SDS011;7622;42.724;23.250;2023-11-18T08:33:54;1.13;;;1.03;;
15049;SDS011;7622;42.724;23.250;2023-11-18T08:36:20;1.37;;;1.27;;
15049;SDS011;7622;42.724;23.250;2023-11-18T08:38:47;1.60;;;1.50;;
15049;SDS011;7622;42.724;23.250;2023-11-18T08:41:15;1.33;;;1.23;;
15049;SDS011;7622;42.724;23.250;2023-11-18T08:43:42;1.20;;;1.20;;
15049;SDS011;7622;42.724;23.250;2023-11-18T08:46:12;3.43;;;1.67;;
15049;SDS011;7622;42.724;23.250;2023-11-18T08:48:39;2.53;;;2.00;;
15049;SDS011;7622;42.724;23.250;2023-11-18T08:51:07;2.10;;;1.50;;
15049;SDS011;7622;42.724;23.250;2023-11-18T08:53:34;1.20;;;1.20;;
15049;SDS011;7622;42.724;23.250;2023-11-18T08:56:06;1.07;;;1.07;;
15049;SDS011;7622;42.724;23.250;2023-11-18T08:58:40;2.20;;;1.87;;
15049;SDS011;7622;42.724;23.250;2023-11-18T09:01:09;1.57;;;1.47;;
15049;SDS011;7622;42.724;23.250;2023-11-18T09:03:40;1.67;;;1.23;;
15049;SDS011;7622;42.724;23.250;2023-11-18T09:06:13;1.20;;;1.20;;
15049;SDS011;7622;42.724;23.250;2023-11-18T09:08:44;0.93;;;0.93;;
15049;SDS011;7622;42.724;23.250;2023-11-18T09:11:18;1.63;;;1.53;;
15049;SDS011;7622;42.724;23.250;2023-11-18T09:13:49;0.90;;;0.90;;
15049;SDS011;7622;42.724;23.250;2023-11-18T09:16:19;0.80;;;0.80;;
15049;SDS011;7622;42.724;23.250;2023-11-18T09:18:47;0.83;;;0.83;;
15049;SDS011;7622;42.724;23.250;2023-11-18T09:21:15;4.17;;;1.27;;
15049;SDS011;7622;42.724;23.250;2023-11-18T09:23:48;1.10;;;1.00;;
15049;SDS011;7622;42.724;23.250;2023-11-18T09:26:15;1.10;;;1.10;;
15049;SDS011;7622;42.724;23.250;2023-11-18T09:28:42;1.13;;;1.13;;
15049;SDS011;7622;42.724;23.250;2023-11-18T09:31:11;1.20;;;1.13;;
15049;SDS011;7622;42.724;23.250;2023-11-18T09:33:38;1.00;;;1.00;;
15049;SDS011;7622;42.724;23.250;2023-11-18T09:36:10;1.00;;;0.87;;
15049;SDS011;7622;42.724;23.250;2023-11-18T09:38:37;1.00;;;1.00;;
15049;SDS011;7622;42.724;23.250;2023-11-18T09:41:06;1.10;;;1.00;;
15049;SDS011;7622;42.724;23.250;2023-11-18T09:43:36;5.47;;;1.30;;
15049;SDS011;7622;42.724;23.250;2023-11-18T09:46:07;1.10;;;0.87;;
15049;SDS011;7622;42.724;23.250;2023-11-18T09:48:40;0.90;;;0.90;;
15049;SDS011;7622;42.724;23.250;2023-11-18T09:51:14;1.00;;;1.00;;
15049;SDS011;7622;42.724;23.250;2023-11-18T09:53:46;0.93;;;0.90;;
15049;SDS011;7622;42.724;23.250;2023-11-18T09:56:18;0.80;;;0.80;;
15049;SDS011;7622;42.724;23.250;2023-11-18T09:58:54;1.53;;;1.20;;
15049;SDS011;7622;42.724;23.250;2023-11-18T10:01:28;1.43;;;1.13;;
15049;SDS011;7622;42.724;23.250;2023-11-18T10:04:06;1.13;;;1.03;;
15049;SDS011;7622;42.724;23.250;2023-11-18T10:06:36;0.90;;;0.90;;
15049;SDS011;7622;42.724;23.250;2023-11-18T10:09:06;1.97;;;0.90;;
15049;SDS011;7622;42.724;23.250;2023-11-18T10:11:42;1.27;;;1.23;;
15049;SDS011;7622;42.724;23.250;2023-11-18T10:14:11;1.20;;;1.20;;
15049;SDS011;7622;42.724;23.250;2023-11-18T10:16:40;1.70;;;1.60;;
15049;SDS011;7622;42.724;23.250;2023-11-18T10:19:13;2.93;;;1.30;;
15049;SDS011;7622;42.724;23.250;2023-11-18T10:21:43;1.33;;;1.13;;
15049;SDS011;7622;42.724;23.250;2023-11-18T10:24:14;2.23;;;1.50;;
15049;SDS011;7622;42.724;23.250;2023-11-18T10:26:44;1.80;;;1.07;;
15049;SDS011;7622;42.724;23.250;2023-11-18T10:29:13;1.87;;;1.23;;
15049;SDS011;7622;42.724;23.250;2023-11-18T10:31:43;0.90;;;0.90;;
15049;SDS011;7622;42.724;23.250;2023-11-18T10:34:13;1.00;;;1.00;;
15049;SDS011;7622;42.724;23.250;2023-11-18T10:36:42;1.33;;;1.10;;
15049;SDS011;7622;42.724;23.250;2023-11-18T10:39:27;0.70;;;0.70;;
15049;SDS011;7622;42.724;23.250;2023-11-18T10:41:58;7.43;;;1.90;;
15049;SDS011;7622;42.724;23.250;2023-11-18T10:44:26;1.10;;;1.10;;
15049;SDS011;7622;42.724;23.250;2023-11-18T10:46:54;1.80;;;0.97;;
15049;SDS011;7622;42.724;23.250;2023-11-18T10:49:25;3.50;;;0.80;;
15049;SDS011;7622;42.724;23.250;2023-11-18T10:51:53;0.90;;;0.90;;
15049;SDS011;7622;42.724;23.250;2023-11-18T10:54:22;0.97;;;0.80;;
15049;SDS011;7622;42.724;23.250;2023-11-18T10:56:51;2.93;;;0.70;;
15049;SDS011;7622;42.724;23.250;2023-11-18T10:59:21;0.80;;;0.80;;
15049;SDS011;7622;42.724;23.250;2023-11-18T11:01:48;1.58;;;1.48;;
15049;SDS011;7622;42.724;23.250;2023-11-18T11:04:17;1.27;;;1.00;;
15049;SDS011;7622;42.724;23.250;2023-11-18T11:06:48;1.23;;;1.17;;
15049;SDS011;7622;42.724;23.250;2023-11-18T11:09:18;4.43;;;0.90;;
15049;SDS011;7622;42.724;23.250;2023-11-18T11:11:50;1.23;;;1.13;;
15049;SDS011;7622;42.724;23.250;2023-11-18T11:14:20;0.97;;;0.97;;
15049;SDS011;7622;42.724;23.250;2023-11-18T11:16:52;0.93;;;0.93;;
15049;SDS011;7622;42.724;23.250;2023-11-18T11:19:24;2.13;;;1.83;;
15049;SDS011;7622;42.724;23.250;2023-11-18T11:22:01;1.33;;;1.20;;
15049;SDS011;7622;42.724;23.250;2023-11-18T11:24:38;1.13;;;1.13;;
15049;SDS011;7622;42.724;23.250;2023-11-18T11:27:17;1.10;;;1.00;;
15049;SDS011;7622;42.724;23.250;2023-11-18T11:29:56;1.70;;;1.60;;
15049;SDS011;7622;42.724;23.250;2023-11-18T11:32:26;2.13;;;1.47;;
15049;SDS011;7622;42.724;23.250;2023-11-18T11:35:04;1.40;;;1.30;;
15049;SDS011;7622;42.724;23.250;2023-11-18T11:37:43;2.20;;;2.00;;
15049;SDS011;7622;42.724;23.250;2023-11-18T11:40:12;1.30;;;1.20;;
15049;SDS011;7622;42.724;23.250;2023-11-18T11:42:47;1.83;;;1.13;;
15049;SDS011;7622;42.724;23.250;2023-11-18T11:45:20;1.00;;;1.00;;
15049;SDS011;7622;42.724;23.250;2023-11-18T11:47:53;1.00;;;1.00;;
15049;SDS011;7622;42.724;23.250;2023-11-18T11:50:38;0.90;;;0.90;;
15049;SDS011;7622;42.724;23.250;2023-11-18T11:53:15;2.03;;;1.00;;
15049;SDS011;7622;42.724;23.250;2023-11-18T11:55:49;4.37;;;0.93;;
15049;SDS011;7622;42.724;23.250;2023-11-18T11:58:28;0.90;;;0.90;;
15049;SDS011;7622;42.724;23.250;2023-11-18T12:00:58;2.13;;;1.20;;
15049;SDS011;7622;42.724;23.250;2023-11-18T12:03:26;1.17;;;1.10;;
15049;SDS011;7622;42.724;23.250;2023-11-18T12:06:01;1.37;;;1.27;;
15049;SDS011;7622;42.724;23.250;2023-11-18T12:08:34;1.00;;;1.00;;
15049;SDS011;7622;42.724;23.250;2023-11-18T12:11:03;2.57;;;1.23;;
15049;SDS011;7622;42.724;23.250;2023-11-18T12:13:34;1.30;;;1.20;;
15049;SDS011;7622;42.724;23.250;2023-11-18T12:16:05;1.20;;;1.20;;
15049;SDS011;7622;42.724;23.250;2023-11-18T12:18:35;1.60;;;1.50;;
15049;SDS011;7622;42.724;23.250;2023-11-18T12:21:05;3.60;;;1.80;;
15049;SDS011;7622;42.724;23.250;2023-11-18T12:26:47;2.60;;;1.20;;
15049;SDS011;7622;42.724;23.250;2023-11-18T12:31:57;1.33;;;1.13;;
15049;SDS011;7622;42.724;23.250;2023-11-18T12:34:23;1.13;;;1.13;;
15049;SDS011;7622;42.724;23.250;2023-11-18T12:43:03;1.10;;;1.10;;
15049;SDS011;7622;42.724;23.250;2023-11-18T12:45:42;1.60;;;1.10;;
15049;SDS011;7622;42.724;23.250;2023-11-18T12:48:09;1.20;;;1.20;;
15049;SDS011;7622;42.724;23.250;2023-11-18T12:50:41;1.20;;;1.20;;
15049;SDS011;7622;42.724;23.250;2023-11-18T12:53:09;1.50;;;1.40;;
15049;SDS011;7622;42.724;23.250;2023-11-18T12:55:42;1.37;;;1.37;;
15049;SDS011;7622;42.724;23.250;2023-11-18T12:58:14;1.07;;;1.07;;
15049;SDS011;7622;42.724;23.250;2023-11-18T13:00:41;5.70;;;1.30;;
15049;SDS011;7622;42.724;23.250;2023-11-18T13:03:10;1.40;;;1.30;;
15049;SDS011;7622;42.724;23.250;2023-11-18T13:05:40;1.00;;;1.00;;
15049;SDS011;7622;42.724;23.250;2023-11-18T13:08:08;1.60;;;1.50;;
15049;SDS011;7622;42.724;23.250;2023-11-18T13:10:35;1.30;;;1.30;;
15049;SDS011;7622;42.724;23.250;2023-11-18T13:13:05;3.43;;;1.60;;
15049;SDS011;7622;42.724;23.250;2023-11-18T13:15:34;1.63;;;1.53;;
15049;SDS011;7622;42.724;23.250;2023-11-18T13:18:01;1.50;;;1.40;;
15049;SDS011;7622;42.724;23.250;2023-11-18T13:20:31;1.40;;;1.30;;
15049;SDS011;7622;42.724;23.250;2023-11-18T13:23:00;1.20;;;1.20;;
15049;SDS011;7622;42.724;23.250;2023-11-18T13:25:33;2.03;;;1.90;;
15049;SDS011;7622;42.724;23.250;2023-11-18T13:28:01;1.50;;;1.40;;
15049;SDS011;7622;42.724;23.250;2023-11-18T13:30:31;2.30;;;2.20;;
15049;SDS011;7622;42.724;23.250;2023-11-18T13:32:59;1.57;;;1.47;;
15049;SDS011;7622;42.724;23.250;2023-11-18T13:35:30;1.63;;;1.53;;
15049;SDS011;7622;42.724;23.250;2023-11-18T13:37:59;1.67;;;1.57;;
15049;SDS011;7622;42.724;23.250;2023-11-18T13:40:26;1.30;;;1.30;;
15049;SDS011;7622;42.724;23.250;2023-11-18T13:43:01;1.60;;;1.50;;
15049;SDS011;7622;42.724;23.250;2023-11-18T13:45:31;1.70;;;1.60;;
15049;SDS011;7622;42.724;23.250;2023-11-18T13:47:59;2.07;;;1.40;;
15049;SDS011;7622;42.724;23.250;2023-11-18T13:50:27;1.43;;;1.43;;
15049;SDS011;7622;42.724;23.250;2023-11-18T13:52:53;4.67;;;1.70;;
15049;SDS011;7622;42.724;23.250;2023-11-18T13:55:21;1.90;;;1.80;;
15049;SDS011;7622;42.724;23.250;2023-11-18T13:57:54;1.80;;;1.70;;
15049;SDS011;7622;42.724;23.250;2023-11-18T14:00:24;1.53;;;1.53;;
15049;SDS011;7622;42.724;23.250;2023-11-18T14:02:57;1.70;;;1.60;;
15049;SDS011;7622;42.724;23.250;2023-11-18T14:05:27;1.90;;;1.80;;
15049;SDS011;7622;42.724;23.250;2023-11-18T14:07:57;3.40;;;2.63;;
15049;SDS011;7622;42.724;23.250;2023-11-18T14:10:25;2.17;;;1.60;;
15049;SDS011;7622;42.724;23.250;2023-11-18T14:12:59;1.73;;;1.63;;
15049;SDS011;7622;42.724;23.250;2023-11-18T14:15:32;2.07;;;1.80;;
15049;SDS011;7622;42.724;23.250;2023-11-18T14:18:03;1.83;;;1.73;;
15049;SDS011;7622;42.724;23.250;2023-11-18T14:20:32;1.57;;;1.57;;
15049;SDS011;7622;42.724;23.250;2023-11-18T14:23:00;7.47;;;2.10;;
15049;SDS011;7622;42.724;23.250;2023-11-18T14:25:28;2.23;;;2.03;;
15049;SDS011;7622;42.724;23.250;2023-11-18T14:27:55;2.27;;;2.17;;
15049;SDS011;7622;42.724;23.250;2023-11-18T14:30:22;2.03;;;1.93;;
15049;SDS011;7622;42.724;23.250;2023-11-18T14:32:51;2.27;;;2.17;;
15049;SDS011;7622;42.724;23.250;2023-11-18T14:35:19;2.23;;;2.10;;
15049;SDS011;7622;42.724;23.250;2023-11-18T14:37:46;2.30;;;2.10;;
15049;SDS011;7622;42.724;23.250;2023-11-18T14:40:13;2.00;;;1.90;;
15049;SDS011;7622;42.724;23.250;2023-11-18T14:42:41;1.87;;;1.77;;
15049;SDS011;7622;42.724;23.250;2023-11-18T14:45:09;1.90;;;1.80;;
15049;SDS011;7622;42.724;23.250;2023-11-18T14:47:37;2.10;;;2.00;;
15049;SDS011;7622;42.724;23.250;2023-11-18T14:50:04;4.30;;;2.23;;
15049;SDS011;7622;42.724;23.250;2023-11-18T14:52:44;2.07;;;1.97;;
15049;SDS011;7622;42.724;23.250;2023-11-18T14:55:11;1.90;;;1.80;;
15049;SDS011;7622;42.724;23.250;2023-11-18T14:57:39;2.03;;;1.93;;
15049;SDS011;7622;42.724;23.250;2023-11-18T15:00:06;2.37;;;2.17;;
15049;SDS011;7622;42.724;23.250;2023-11-18T15:02:36;1.77;;;1.67;;
15049;SDS011;7622;42.724;23.250;2023-11-18T15:05:03;4.07;;;2.53;;
15049;SDS011;7622;42.724;23.250;2023-11-18T15:07:34;1.77;;;1.67;;
15049;SDS011;7622;42.724;23.250;2023-11-18T15:10:03;2.60;;;2.40;;
15049;SDS011;7622;42.724;23.250;2023-11-18T15:12:31;2.53;;;2.33;;